createdAt,value
2019-03-31T00:02:33.499Z,86.60
2019-03-31T00:05:07.183Z,86.70
2019-03-31T00:07:40.850Z,86.80
2019-03-31T00:10:14.554Z,86.90
2019-03-31T00:12:48.270Z,87.20
2019-03-31T00:15:21.983Z,87.30
2019-03-31T00:17:55.725Z,87.30
2019-03-31T00:20:29.416Z,87.60
2019-03-31T00:23:03.138Z,87.30
2019-03-31T00:25:37.342Z,87.30
2019-03-31T00:28:11.067Z,87.40
2019-03-31T00:30:44.767Z,87.70
2019-03-31T00:33:18.495Z,87.60
2019-03-31T00:35:52.121Z,88.20
2019-03-31T00:38:25.797Z,87.80
2019-03-31T00:40:59.542Z,87.80
2019-03-31T00:43:33.284Z,87.80
2019-03-31T00:46:06.988Z,88.10
2019-03-31T00:48:40.736Z,88.20
2019-03-31T00:51:14.436Z,88.30
2019-03-31T00:53:48.103Z,88.00
2019-03-31T00:56:21.727Z,88.80
2019-03-31T00:58:55.388Z,88.70
2019-03-31T01:01:36.646Z,89.00
2019-03-31T01:04:09.768Z,88.40
2019-03-31T01:06:43.515Z,88.70
2019-03-31T01:09:22.916Z,88.50
2019-03-31T01:11:56.875Z,88.30
2019-03-31T01:14:30.603Z,88.90
2019-03-31T01:17:06.708Z,89.20
2019-03-31T01:19:40.784Z,89.00
2019-03-31T01:22:14.585Z,89.60
2019-03-31T01:24:48.284Z,90.30
2019-03-31T01:27:22.185Z,89.40
2019-03-31T01:29:55.809Z,89.10
2019-03-31T01:32:29.800Z,90.50
2019-03-31T01:35:05.591Z,91.00
2019-03-31T01:37:39.429Z,89.90
2019-03-31T01:40:13.128Z,90.20
2019-03-31T01:42:46.795Z,90.00
2019-03-31T01:45:20.492Z,90.40
2019-03-31T01:47:54.233Z,90.00
2019-03-31T01:50:27.856Z,89.60
2019-03-31T01:53:01.567Z,90.10
2019-03-31T01:55:35.363Z,89.90
2019-03-31T01:58:09.097Z,89.80
2019-03-31T02:00:44.476Z,89.60
2019-03-31T02:03:18.131Z,90.10
2019-03-31T02:05:51.891Z,90.10
2019-03-31T02:08:25.552Z,90.10
2019-03-31T02:10:59.257Z,90.00
2019-03-31T02:13:32.973Z,90.20
2019-03-31T02:16:06.745Z,90.50
2019-03-31T02:18:40.405Z,90.90
2019-03-31T02:21:14.035Z,91.20
2019-03-31T02:23:47.707Z,90.50
2019-03-31T02:26:21.480Z,89.50
2019-03-31T02:28:55.145Z,90.30
2019-03-31T02:31:29.017Z,91.10
2019-03-31T02:34:02.743Z,91.30
2019-03-31T02:36:36.358Z,91.30
2019-03-31T02:39:10.033Z,91.50
2019-03-31T02:41:43.788Z,91.50
2019-03-31T02:44:17.464Z,91.70
2019-03-31T02:46:51.272Z,91.70
2019-03-31T02:49:24.984Z,91.70
2019-03-31T02:51:58.718Z,92.40
2019-03-31T02:54:32.505Z,92.00
2019-03-31T02:57:06.645Z,91.70
2019-03-31T02:59:41.869Z,91.60
2019-03-31T03:02:16.460Z,91.40
2019-03-31T03:04:51.493Z,91.90
2019-03-31T03:07:26.607Z,91.20
2019-03-31T03:10:01.682Z,91.20
2019-03-31T03:12:37.394Z,91.30
2019-03-31T03:15:11.122Z,91.20
2019-03-31T03:17:44.807Z,91.10
2019-03-31T03:20:18.465Z,91.30
2019-03-31T03:22:52.158Z,91.40
2019-03-31T03:25:26.004Z,91.50
2019-03-31T03:27:59.688Z,91.50
2019-03-31T03:30:33.448Z,91.40
2019-03-31T03:33:17.351Z,91.50
2019-03-31T03:35:42.419Z,91.30
2019-03-31T03:38:16.116Z,91.80
2019-03-31T03:40:49.912Z,91.60
2019-03-31T03:43:23.679Z,91.10
2019-03-31T03:45:57.431Z,91.00
2019-03-31T03:48:31.168Z,91.00
2019-03-31T03:51:04.960Z,91.00
2019-03-31T03:53:38.707Z,91.70
2019-03-31T03:56:12.486Z,92.70
2019-03-31T03:58:46.199Z,93.20
2019-03-31T04:01:20.789Z,92.50
2019-03-31T04:03:54.492Z,92.20
2019-03-31T04:06:28.164Z,93.10
2019-03-31T04:09:01.908Z,92.80
2019-03-31T04:11:35.658Z,93.20
2019-03-31T04:14:09.379Z,92.60
2019-03-31T04:16:43.126Z,92.00
2019-03-31T04:19:16.828Z,92.60
2019-03-31T04:21:50.520Z,92.50
2019-03-31T04:24:24.194Z,93.00
2019-03-31T04:26:57.936Z,92.50
2019-03-31T04:29:31.657Z,91.30
2019-03-31T04:32:05.347Z,90.60
2019-03-31T04:34:39.068Z,90.20
2019-03-31T04:37:12.784Z,90.20
2019-03-31T04:39:46.459Z,90.50
2019-03-31T04:42:20.146Z,89.60
2019-03-31T04:44:53.807Z,89.40
2019-03-31T04:47:27.432Z,89.20
2019-03-31T04:50:01.094Z,88.90
2019-03-31T04:52:34.787Z,88.80
2019-03-31T04:55:08.444Z,88.70
2019-03-31T04:57:42.147Z,89.20
2019-03-31T05:00:15.876Z,89.50
2019-03-31T05:02:49.504Z,89.60
2019-03-31T05:05:23.185Z,90.40
2019-03-31T05:07:56.807Z,92.20
2019-03-31T05:10:30.393Z,92.10
2019-03-31T05:13:04.024Z,92.40
2019-03-31T05:15:37.615Z,93.20
2019-03-31T05:18:11.303Z,92.80
2019-03-31T05:20:44.961Z,93.40
2019-03-31T05:23:18.582Z,92.60
2019-03-31T05:25:52.310Z,92.60
2019-03-31T05:28:25.970Z,92.60
2019-03-31T05:30:59.636Z,92.00
2019-03-31T05:33:33.255Z,91.50
2019-03-31T05:36:06.917Z,91.30
2019-03-31T05:38:40.584Z,90.90
2019-03-31T05:41:14.208Z,90.80
2019-03-31T05:43:47.790Z,90.60
2019-03-31T05:46:21.487Z,91.50
2019-03-31T05:48:55.136Z,91.20
2019-03-31T05:51:28.768Z,91.70
2019-03-31T05:54:02.501Z,91.70
2019-03-31T05:56:36.083Z,91.30
2019-03-31T05:59:09.783Z,91.00
2019-03-31T06:01:43.523Z,90.90
2019-03-31T06:04:17.219Z,92.70
2019-03-31T06:06:50.879Z,91.90
2019-03-31T06:09:24.616Z,92.10
2019-03-31T06:11:58.315Z,92.10
2019-03-31T06:14:32.038Z,92.10
2019-03-31T06:17:05.727Z,91.80
2019-03-31T06:19:39.469Z,92.70
2019-03-31T06:22:13.160Z,94.00
2019-03-31T06:24:46.820Z,94.70
2019-03-31T06:27:20.514Z,95.40
2019-03-31T06:29:54.539Z,95.90
2019-03-31T06:32:28.243Z,96.10
2019-03-31T06:35:01.978Z,95.90
2019-03-31T06:37:35.629Z,95.70
2019-03-31T06:40:09.363Z,95.10
2019-03-31T06:42:42.992Z,95.50
2019-03-31T06:45:16.717Z,96.10
2019-03-31T06:47:50.381Z,96.40
2019-03-31T06:50:24.003Z,96.00
2019-03-31T06:52:57.661Z,94.70
2019-03-31T06:55:31.286Z,94.90
2019-03-31T06:58:05.019Z,94.30
2019-03-31T07:00:38.690Z,94.00
2019-03-31T07:03:12.403Z,93.80
2019-03-31T07:05:46.064Z,93.90
2019-03-31T07:08:19.766Z,94.00
2019-03-31T07:10:53.440Z,93.80
2019-03-31T07:13:27.066Z,94.30
2019-03-31T07:16:00.732Z,94.60
2019-03-31T07:18:34.430Z,93.50
2019-03-31T07:21:08.166Z,94.80
2019-03-31T07:23:41.898Z,95.20
2019-03-31T07:26:15.624Z,96.30
2019-03-31T07:28:49.182Z,97.00
2019-03-31T07:31:22.911Z,97.00
2019-03-31T07:33:56.528Z,97.20
2019-03-31T07:36:30.179Z,96.50
2019-03-31T07:39:06.000Z,97.10
2019-03-31T07:41:39.776Z,96.60
2019-03-31T07:44:15.429Z,97.20
2019-03-31T07:46:49.215Z,97.20
2019-03-31T07:49:23.140Z,97.20
2019-03-31T07:51:56.876Z,97.20
2019-03-31T07:54:30.437Z,97.20
2019-03-31T07:57:06.849Z,97.20
2019-03-31T07:59:39.455Z,97.20
2019-03-31T08:02:13.172Z,97.20
2019-03-31T08:04:46.795Z,97.20
2019-03-31T08:07:20.533Z,95.90
2019-03-31T08:09:54.162Z,94.40
2019-03-31T08:12:27.835Z,95.30
2019-03-31T08:15:01.560Z,95.10
2019-03-31T08:17:36.651Z,96.50
2019-03-31T08:20:16.193Z,97.20
2019-03-31T08:22:49.890Z,97.20
2019-03-31T08:25:26.599Z,97.20
2019-03-31T08:28:00.164Z,97.20
2019-03-31T08:30:33.841Z,97.20
2019-03-31T08:33:07.557Z,97.20
2019-03-31T08:35:47.476Z,97.20
2019-03-31T08:38:16.730Z,97.20
2019-03-31T08:40:50.350Z,97.20
2019-03-31T08:43:24.006Z,97.20
2019-03-31T08:45:57.954Z,97.20
2019-03-31T08:48:31.690Z,97.20
2019-03-31T08:51:05.458Z,97.20
2019-03-31T08:53:39.194Z,97.20
2019-03-31T08:56:12.756Z,97.20
2019-03-31T08:58:46.488Z,97.20
2019-03-31T09:01:21.915Z,97.20
2019-03-31T09:03:55.608Z,97.20
2019-03-31T09:06:29.339Z,97.20
2019-03-31T09:09:03.370Z,97.20
2019-03-31T09:11:37.100Z,97.20
2019-03-31T09:14:10.756Z,97.20
2019-03-31T09:16:44.500Z,97.20
2019-03-31T09:19:18.136Z,97.20
2019-03-31T09:21:51.787Z,96.80
2019-03-31T09:24:25.416Z,96.10
2019-03-31T09:26:59.145Z,97.00
2019-03-31T09:29:32.852Z,95.40
2019-03-31T09:32:06.524Z,91.80
2019-03-31T09:34:40.158Z,88.50
2019-03-31T09:37:13.835Z,88.40
2019-03-31T09:39:47.439Z,86.10
2019-03-31T09:42:21.139Z,85.30
2019-03-31T09:44:54.803Z,85.10
2019-03-31T09:47:28.507Z,84.40
2019-03-31T09:50:02.140Z,83.90
2019-03-31T09:52:35.955Z,84.50
2019-03-31T09:55:10.098Z,83.80
2019-03-31T09:57:43.818Z,82.00
2019-03-31T10:00:36.651Z,81.00
2019-03-31T10:03:10.404Z,78.00
2019-03-31T10:05:47.593Z,78.60
2019-03-31T10:08:21.997Z,78.60
2019-03-31T10:10:55.024Z,78.50
2019-03-31T10:13:28.683Z,77.90
2019-03-31T10:16:02.324Z,78.10
2019-03-31T10:18:36.064Z,78.80
2019-03-31T10:21:09.693Z,75.50
2019-03-31T10:23:43.434Z,74.00
2019-03-31T10:26:31.155Z,74.40
2019-03-31T10:28:52.467Z,75.70
2019-03-31T10:31:26.046Z,74.80
2019-03-31T10:33:59.643Z,77.90
2019-03-31T10:36:43.736Z,80.40
2019-03-31T10:39:09.342Z,78.90
2019-03-31T10:41:43.055Z,77.30
2019-03-31T10:44:16.716Z,76.70
2019-03-31T10:46:50.411Z,77.70
2019-03-31T10:49:24.081Z,75.30
2019-03-31T10:51:57.755Z,76.50
2019-03-31T10:54:31.381Z,75.40
2019-03-31T10:57:05.108Z,75.30
2019-03-31T10:59:38.867Z,75.70
2019-03-31T11:02:12.596Z,76.70
2019-03-31T11:04:46.303Z,76.60
2019-03-31T11:07:20.038Z,77.10
2019-03-31T11:09:53.748Z,78.00
2019-03-31T11:12:27.436Z,78.30
2019-03-31T11:15:01.140Z,77.00
2019-03-31T11:17:34.884Z,77.40
2019-03-31T11:20:08.619Z,78.50
2019-03-31T11:22:47.065Z,77.80
2019-03-31T11:25:24.970Z,78.80
2019-03-31T11:27:56.112Z,77.60
2019-03-31T11:30:29.911Z,78.10
2019-03-31T11:33:07.165Z,77.10
2019-03-31T11:35:38.983Z,77.90
2019-03-31T11:38:12.777Z,77.90
2019-03-31T11:40:46.571Z,78.20
2019-03-31T11:43:20.297Z,78.90
2019-03-31T11:45:53.932Z,78.50
2019-03-31T11:48:27.681Z,78.30
2019-03-31T11:51:01.381Z,79.80
2019-03-31T11:53:34.975Z,77.30
2019-03-31T11:56:08.605Z,78.30
2019-03-31T11:58:42.257Z,78.80
2019-03-31T12:01:16.398Z,79.10
2019-03-31T12:03:49.932Z,78.60
2019-03-31T12:06:23.664Z,78.40
2019-03-31T12:08:57.335Z,78.80
2019-03-31T12:11:31.072Z,79.00
2019-03-31T12:14:05.190Z,79.20
2019-03-31T12:16:38.921Z,78.50
2019-03-31T12:19:12.583Z,78.00
2019-03-31T12:21:46.213Z,78.00
2019-03-31T12:24:20.254Z,79.10
2019-03-31T12:26:53.888Z,79.00
2019-03-31T12:29:27.561Z,77.60
2019-03-31T12:32:01.307Z,76.20
2019-03-31T12:34:35.049Z,76.00
2019-03-31T12:37:08.940Z,77.30
2019-03-31T12:39:42.727Z,78.80
2019-03-31T12:42:16.310Z,78.90
2019-03-31T12:44:50.036Z,80.20
2019-03-31T12:47:23.628Z,82.10
2019-03-31T12:49:57.349Z,83.50
2019-03-31T12:52:31.139Z,82.80
2019-03-31T12:55:05.668Z,85.40
2019-03-31T12:57:39.308Z,86.70
2019-03-31T13:00:13.457Z,86.30
2019-03-31T13:02:47.221Z,85.70
2019-03-31T13:05:20.919Z,86.70
2019-03-31T13:07:56.724Z,86.70
2019-03-31T13:10:29.999Z,83.50
2019-03-31T13:13:03.829Z,84.50
2019-03-31T13:15:37.870Z,86.10
2019-03-31T13:18:11.602Z,84.20
2019-03-31T13:20:45.265Z,86.20
2019-03-31T13:23:19.124Z,86.40
2019-03-31T13:25:52.835Z,85.80
2019-03-31T13:28:26.492Z,84.20
2019-03-31T13:31:00.116Z,85.00
2019-03-31T13:33:33.895Z,85.20
2019-03-31T13:36:07.563Z,85.80
2019-03-31T13:38:41.147Z,83.60
2019-03-31T13:41:14.776Z,82.20
2019-03-31T13:43:48.372Z,82.50
2019-03-31T13:46:22.066Z,81.20
2019-03-31T13:48:55.922Z,82.90
2019-03-31T13:51:29.637Z,83.70
2019-03-31T13:54:03.359Z,85.00
2019-03-31T13:56:37.307Z,86.20
2019-03-31T13:59:11.220Z,87.00
2019-03-31T14:01:45.044Z,87.00
2019-03-31T14:04:18.808Z,85.70
2019-03-31T14:06:52.439Z,86.20
2019-03-31T14:09:26.034Z,85.50
2019-03-31T14:11:59.731Z,85.80
2019-03-31T14:14:33.383Z,83.90
2019-03-31T14:17:06.950Z,84.30
2019-03-31T14:19:40.611Z,81.10
2019-03-31T14:22:14.308Z,79.80
2019-03-31T14:24:47.990Z,80.70
2019-03-31T14:27:21.623Z,79.40
2019-03-31T14:29:55.235Z,81.00
2019-03-31T14:32:28.981Z,82.30
2019-03-31T14:35:02.634Z,82.00
2019-03-31T14:37:36.365Z,82.10
2019-03-31T14:40:10.096Z,82.10
2019-03-31T14:42:43.838Z,83.60
2019-03-31T14:45:31.369Z,83.80
2019-03-31T14:48:05.798Z,84.90
2019-03-31T14:50:39.927Z,84.50
2019-03-31T14:53:13.647Z,84.80
2019-03-31T14:55:47.676Z,85.90
2019-03-31T14:58:21.371Z,85.10
2019-03-31T15:00:55.035Z,84.80
2019-03-31T15:03:28.660Z,85.10
2019-03-31T15:06:02.389Z,84.60
2019-03-31T15:08:36.012Z,85.30
2019-03-31T15:11:09.743Z,84.70
2019-03-31T15:13:43.377Z,84.90
2019-03-31T15:16:17.095Z,86.40
2019-03-31T15:18:50.829Z,85.10
2019-03-31T15:21:24.545Z,86.50
2019-03-31T15:23:58.247Z,85.80
2019-03-31T15:26:31.976Z,85.90
2019-03-31T15:29:05.777Z,86.30
2019-03-31T15:31:39.597Z,86.50
2019-03-31T15:37:09.392Z,85.50
2019-03-31T15:39:43.021Z,86.20
2019-03-31T15:42:16.829Z,85.00
2019-03-31T15:44:50.523Z,85.40
2019-03-31T15:47:24.184Z,85.90
2019-03-31T15:49:57.907Z,85.40
2019-03-31T15:52:31.528Z,85.20
2019-03-31T15:55:08.397Z,86.40
2019-03-31T15:57:42.039Z,85.40
2019-03-31T16:00:16.502Z,85.30
2019-03-31T16:02:50.230Z,85.00
2019-03-31T16:05:23.781Z,85.20
2019-03-31T16:07:57.442Z,85.50
2019-03-31T16:10:31.068Z,85.10
2019-03-31T16:13:04.787Z,85.70
2019-03-31T16:15:38.439Z,86.10
2019-03-31T16:18:12.092Z,85.90
2019-03-31T16:20:45.791Z,86.00
2019-03-31T16:23:19.526Z,85.60
2019-03-31T16:25:57.419Z,85.60
2019-03-31T16:28:30.961Z,85.40
2019-03-31T16:31:04.782Z,85.10
2019-03-31T16:33:38.397Z,85.60
2019-03-31T16:36:12.045Z,85.50
2019-03-31T16:38:45.667Z,85.20
2019-03-31T16:41:19.328Z,86.20
2019-03-31T16:43:53.091Z,86.30
2019-03-31T16:46:27.263Z,86.40
2019-03-31T16:49:00.880Z,86.70
2019-03-31T16:51:34.519Z,86.70
2019-03-31T16:54:08.153Z,86.80
2019-03-31T16:56:41.842Z,86.90
2019-03-31T16:59:15.588Z,86.50
2019-03-31T17:01:49.227Z,86.00
2019-03-31T17:04:22.965Z,86.40
2019-03-31T17:06:56.640Z,86.40
2019-03-31T17:09:30.251Z,86.70
2019-03-31T17:12:03.899Z,87.00
2019-03-31T17:14:37.524Z,86.90
2019-03-31T17:17:11.170Z,87.10
2019-03-31T17:19:44.866Z,87.60
2019-03-31T17:22:18.529Z,87.90
2019-03-31T17:24:52.212Z,88.20
2019-03-31T17:27:25.900Z,88.60
2019-03-31T17:29:59.524Z,88.90
2019-03-31T17:32:33.143Z,88.70
2019-03-31T17:35:08.273Z,89.00
2019-03-31T17:37:41.973Z,89.10
2019-03-31T17:40:15.694Z,88.60
2019-03-31T17:42:49.388Z,88.60
2019-03-31T17:45:23.047Z,88.70
2019-03-31T17:47:56.669Z,88.40
2019-03-31T17:50:30.323Z,88.30
2019-03-31T17:53:04.207Z,88.30
2019-03-31T17:55:37.976Z,88.10
2019-03-31T17:58:11.547Z,88.30
2019-03-31T18:00:45.245Z,88.60
2019-03-31T18:03:18.907Z,88.70
2019-03-31T18:05:52.571Z,89.10
2019-03-31T18:08:26.192Z,89.20
2019-03-31T18:10:59.852Z,89.30
2019-03-31T18:13:33.473Z,89.50
2019-03-31T18:16:07.205Z,89.90
2019-03-31T18:18:40.899Z,89.60
2019-03-31T18:21:14.561Z,89.10
2019-03-31T18:23:48.214Z,89.20
2019-03-31T18:26:21.833Z,89.60
2019-03-31T18:28:55.489Z,89.90
2019-03-31T18:31:29.193Z,90.20
2019-03-31T18:34:02.921Z,90.60
2019-03-31T18:36:37.327Z,90.60
2019-03-31T18:39:11.111Z,90.80
2019-03-31T18:41:44.767Z,91.10
2019-03-31T18:44:18.474Z,91.60
2019-03-31T18:46:52.192Z,91.60
2019-03-31T18:49:25.739Z,91.40
2019-03-31T18:51:59.380Z,91.70
2019-03-31T18:54:50.616Z,91.50
2019-03-31T18:57:25.908Z,91.30
2019-03-31T19:00:01.240Z,91.30
2019-03-31T19:02:45.320Z,91.10
2019-03-31T19:05:29.560Z,91.20
2019-03-31T19:08:13.839Z,91.20
2019-03-31T19:11:07.422Z,91.50
2019-03-31T19:13:55.152Z,91.90
2019-03-31T19:16:41.756Z,92.00
2019-03-31T19:19:22.749Z,92.00
2019-03-31T19:21:58.031Z,92.60
2019-03-31T19:24:49.773Z,92.50
2019-03-31T19:27:30.773Z,92.40
2019-03-31T19:30:26.076Z,92.10
2019-03-31T19:33:04.638Z,91.80
2019-03-31T19:35:56.126Z,91.60
2019-03-31T19:38:31.461Z,91.40
2019-03-31T19:41:09.299Z,91.10
2019-03-31T19:43:47.185Z,91.20
2019-03-31T19:46:22.476Z,91.10
2019-03-31T19:48:57.736Z,90.80
2019-03-31T19:51:33.033Z,90.70
2019-03-31T19:54:11.065Z,90.70
2019-03-31T19:57:02.876Z,90.50
2019-03-31T19:59:54.420Z,90.20
2019-03-31T20:02:38.371Z,89.60
2019-03-31T20:05:22.907Z,89.20
2019-03-31T20:08:14.530Z,89.40
2019-03-31T20:10:52.575Z,89.40
2019-03-31T20:13:39.771Z,89.40
2019-03-31T20:16:15.031Z,89.30
2019-03-31T20:18:53.339Z,89.40
2019-03-31T20:21:32.568Z,89.50
2019-03-31T20:24:11.012Z,89.00
2019-03-31T20:26:52.340Z,88.90
2019-03-31T20:29:43.568Z,88.10
2019-03-31T20:32:18.801Z,87.80
2019-03-31T20:34:56.895Z,88.00
2019-03-31T20:37:32.128Z,88.30
2019-03-31T20:40:11.016Z,88.60
2019-03-31T20:43:02.635Z,89.30
2019-03-31T20:45:36.253Z,89.30
2019-03-31T20:48:10.071Z,89.20
2019-03-31T20:50:43.687Z,89.80
2019-03-31T20:53:17.511Z,90.20
2019-03-31T20:55:51.132Z,90.20
2019-03-31T20:58:24.873Z,90.30
2019-03-31T21:00:58.747Z,90.40
2019-03-31T21:03:32.345Z,90.60
2019-03-31T21:06:07.194Z,91.10
2019-03-31T21:08:40.838Z,91.30
2019-03-31T21:11:14.537Z,91.30
2019-03-31T21:13:48.275Z,91.30
2019-03-31T21:16:21.977Z,91.10
2019-03-31T21:18:55.681Z,91.00
2019-03-31T21:21:29.288Z,91.30
2019-03-31T21:24:02.941Z,91.10
2019-03-31T21:26:36.628Z,91.10
2019-03-31T21:29:10.275Z,91.00
2019-03-31T21:31:43.752Z,91.30
2019-03-31T21:34:17.497Z,91.60
2019-03-31T21:36:51.111Z,91.90
2019-03-31T21:39:24.909Z,91.90
2019-03-31T21:41:58.630Z,92.20
2019-03-31T21:44:32.354Z,92.70
2019-03-31T21:47:05.967Z,92.90
2019-03-31T21:49:39.618Z,92.80
2019-03-31T21:52:13.242Z,93.20
2019-03-31T21:54:46.759Z,93.00
2019-03-31T21:57:20.380Z,92.80
2019-03-31T21:59:54.037Z,92.70
2019-03-31T22:02:27.652Z,93.00
2019-03-31T22:05:01.308Z,93.20
2019-03-31T22:07:35.003Z,92.90
2019-03-31T22:10:08.869Z,93.10
2019-03-31T22:12:42.496Z,93.00
2019-03-31T22:15:16.235Z,93.10
2019-03-31T22:17:49.772Z,93.00
2019-03-31T22:20:23.353Z,93.00
2019-03-31T22:22:56.900Z,93.20
2019-03-31T22:25:30.560Z,93.20
2019-03-31T22:28:04.176Z,93.20
2019-03-31T22:30:37.824Z,93.20
2019-03-31T22:33:11.448Z,93.10
2019-03-31T22:35:46.811Z,93.20
2019-03-31T22:38:20.352Z,93.30
2019-03-31T22:40:53.931Z,93.20
2019-03-31T22:43:27.766Z,92.70
2019-03-31T22:46:01.420Z,92.70
2019-03-31T22:48:35.043Z,92.50
2019-03-31T22:51:08.721Z,92.50
2019-03-31T22:53:42.412Z,92.50
2019-03-31T22:56:16.139Z,92.40
2019-03-31T22:58:49.863Z,91.90
2019-03-31T23:01:23.479Z,92.20
2019-03-31T23:03:57.218Z,91.70
2019-03-31T23:06:30.832Z,91.50
2019-03-31T23:09:06.302Z,91.60
2019-03-31T23:11:39.996Z,91.60
2019-03-31T23:14:13.658Z,91.60
2019-03-31T23:16:47.275Z,91.50
2019-03-31T23:19:20.856Z,90.80
2019-03-31T23:21:54.486Z,91.00
2019-03-31T23:24:28.217Z,90.80
2019-03-31T23:27:01.765Z,90.60
2019-03-31T23:29:35.351Z,89.00
2019-03-31T23:32:09.031Z,89.50
2019-03-31T23:34:42.615Z,89.30
2019-03-31T23:37:16.155Z,89.80
2019-03-31T23:39:49.799Z,89.20
2019-03-31T23:42:23.350Z,88.20
2019-03-31T23:44:56.931Z,87.00
2019-03-31T23:47:30.558Z,87.10
2019-03-31T23:50:04.994Z,87.80
2019-03-31T23:52:38.688Z,86.60
2019-03-31T23:55:12.417Z,87.10
2019-03-31T23:57:46.046Z,86.70
